Time;durP1;ratioP1;P1;durP2;ratioP2;P2;SDS_P1;SDS_P2;PMS_P1;PMS_P2;Temp;Humidity;BMP_temperature;BMP_pressure;BME280_temperature;BME280_humidity;BME280_pressure;Samples;Min_cycle;Max_cycle;Signal;HPM_P1;HPM_P2
2022/08/28 00:00:11;;;;;;;11.20;7.40;;;;;;;18.35;88.56;98017.82;105860;1277;25235;-68
2022/08/28 00:02:59;;;;;;;9.60;7.40;;;;;;;18.33;88.72;98018.36;105858;1277;24228;-68
2022/08/28 00:05:28;;;;;;;11.70;7.10;;;;;;;18.31;89.00;98015.09;105878;1277;22551;-67
2022/08/28 00:07:56;;;;;;;13.30;7.60;;;;;;;18.30;89.01;98014.01;105915;1277;22535;-69
2022/08/28 00:10:24;;;;;;;9.60;6.70;;;;;;;18.28;88.99;98016.30;105863;1277;22596;-68
2022/08/28 00:12:54;;;;;;;8.70;6.90;;;;;;;18.28;89.05;98011.80;105873;1277;22778;-68
2022/08/28 00:15:29;;;;;;;9.40;7.40;;;;;;;18.27;89.16;98012.02;105918;1277;24279;-67
2022/08/28 00:17:57;;;;;;;13.10;7.80;;;;;;;18.28;89.25;98007.95;105888;1277;24288;-68
2022/08/28 00:20:25;;;;;;;14.60;7.30;;;;;;;18.29;89.23;98005.83;105663;1277;22573;-67
2022/08/28 00:22:54;;;;;;;11.10;7.50;;;;;;;18.29;88.92;98001.35;105639;1277;24334;-68
2022/08/28 00:25:24;;;;;;;10.40;7.10;;;;;;;18.30;88.91;98002.48;105755;1277;22535;-68
2022/08/28 00:27:55;;;;;;;12.00;7.20;;;;;;;18.31;88.72;97999.87;105704;1277;25504;-68
2022/08/28 00:30:33;;;;;;;11.20;7.60;;;;;;;18.31;88.57;97999.55;105839;1277;22534;-68
2022/08/28 00:33:10;;;;;;;9.90;7.10;;;;;;;18.31;88.64;97999.27;105903;1277;22577;-68
2022/08/28 00:35:39;;;;;;;10.60;7.40;;;;;;;18.32;88.42;98002.06;105886;1277;22707;-68
2022/08/28 00:38:08;;;;;;;8.90;7.40;;;;;;;18.32;88.23;97999.69;106009;1276;24439;-68
2022/08/28 00:40:35;;;;;;;7.80;6.60;;;;;;;18.32;88.04;97995.29;105971;1277;24240;-68
2022/08/28 00:43:05;;;;;;;11.30;7.10;;;;;;;18.30;88.05;97988.64;105842;1277;22704;-68
2022/08/28 00:45:33;;;;;;;9.30;7.00;;;;;;;18.29;87.94;97987.73;105899;1277;22559;-68
2022/08/28 00:48:00;;;;;;;12.90;6.90;;;;;;;18.29;87.91;97986.80;105570;1277;24352;-68
2022/08/28 00:52:04;;;;;;;8.80;6.60;;;;;;;18.29;87.75;97981.17;105867;1274;24252;-68
2022/08/28 00:53:20;;;;;;;9.30;6.70;;;;;;;18.29;87.78;97981.49;105876;1277;23189;-68
2022/08/28 00:55:49;;;;;;;10.20;7.10;;;;;;;18.29;87.61;97983.39;105881;1277;23364;-68
2022/08/28 00:58:17;;;;;;;9.50;7.10;;;;;;;18.30;87.56;97986.12;105982;1277;22619;-68
2022/08/28 01:00:44;;;;;;;10.30;7.10;;;;;;;18.31;87.60;97989.02;105888;1277;25309;-68
2022/08/28 01:03:11;;;;;;;11.70;7.00;;;;;;;18.32;87.63;97990.25;105866;1277;22560;-68
2022/08/28 01:05:42;;;;;;;9.60;6.60;;;;;;;18.33;87.57;97987.98;105851;1277;25316;-68
2022/08/28 01:08:09;;;;;;;10.20;6.90;;;;;;;18.35;87.43;97985.61;105870;1277;22635;-68
2022/08/28 01:10:36;;;;;;;11.40;7.30;;;;;;;18.35;87.46;97980.44;105848;1277;22577;-68
2022/08/28 01:13:03;;;;;;;8.30;6.60;;;;;;;18.36;87.53;97976.83;105910;1277;25406;-68
2022/08/28 01:15:34;;;;;;;8.30;7.00;;;;;;;18.35;87.54;97972.55;105913;1277;22551;-68
2022/08/28 01:18:06;;;;;;;8.20;6.70;;;;;;;18.34;87.55;97969.88;105960;1277;25637;-67
2022/08/28 01:20:36;;;;;;;9.50;7.10;;;;;;;18.33;87.57;97973.20;105857;1277;22674;-68
2022/08/28 01:23:25;;;;;;;9.00;6.60;;;;;;;18.32;87.56;97970.80;105951;1277;22547;-68
2022/08/28 01:25:52;;;;;;;9.30;7.20;;;;;;;18.31;87.57;97974.45;105892;1277;22647;-68
2022/08/28 01:28:19;;;;;;;11.10;7.30;;;;;;;18.32;87.49;97979.23;105882;1277;25617;-68
2022/08/28 01:30:47;;;;;;;10.90;7.30;;;;;;;18.34;87.38;97977.98;105881;1277;22534;-68
2022/08/28 01:33:14;;;;;;;;;;;;;;;18.34;87.42;97981.40;105987;1277;22531;-68
2022/08/28 01:35:44;;;;;;;12.80;7.10;;;;;;;18.34;87.74;97982.45;105893;1277;24314;-68
2022/08/28 01:38:11;;;;;;;7.70;6.90;;;;;;;18.33;88.01;97987.15;105939;1277;25589;-68
2022/08/28 01:40:41;;;;;;;9.60;7.70;;;;;;;18.33;88.51;97991.34;105818;1277;25417;-68
2022/08/28 01:43:19;;;;;;;9.10;7.30;;;;;;;18.33;88.78;97993.38;105660;1277;22568;-68
2022/08/28 01:45:52;;;;;;;9.80;7.60;;;;;;;18.33;88.89;97993.88;105673;1277;22792;-68
2022/08/28 01:48:21;;;;;;;9.20;7.50;;;;;;;18.34;88.79;97994.27;105621;1277;22618;-68
2022/08/28 01:50:48;;;;;;;;;;;;;;;18.35;89.08;97993.80;105835;1277;22652;-68
2022/08/28 01:53:17;;;;;;;10.30;7.60;;;;;;;18.34;89.08;97992.05;105904;1277;24202;-68
2022/08/28 01:55:45;;;;;;;11.60;7.50;;;;;;;18.34;89.06;97996.50;105900;1277;22690;-68
2022/08/28 01:58:12;;;;;;;8.10;7.00;;;;;;;18.34;89.15;97995.67;105943;1277;25280;-68
2022/08/28 02:00:39;;;;;;;9.20;8.20;;;;;;;18.35;89.22;97993.95;105900;1277;25487;-68
2022/08/28 02:03:06;;;;;;;10.20;7.80;;;;;;;18.35;89.23;97995.22;105853;1277;22546;-68
2022/08/28 02:05:34;;;;;;;12.90;7.60;;;;;;;18.35;89.38;97996.04;105888;1277;24327;-68
2022/08/28 02:08:03;;;;;;;9.80;7.80;;;;;;;18.36;89.39;97995.85;105867;1277;22536;-68
2022/08/28 02:10:33;;;;;;;8.60;7.10;;;;;;;18.34;89.42;97999.52;105869;1277;22561;-69
2022/08/28 02:13:01;;;;;;;9.70;7.00;;;;;;;18.34;89.50;98003.45;105885;1277;32105;-68
2022/08/28 02:15:30;;;;;;;10.30;7.50;;;;;;;18.34;89.49;98010.23;105966;1277;24306;-68
2022/08/28 02:17:58;;;;;;;9.70;7.50;;;;;;;18.35;89.73;98009.66;105991;1277;25289;-68
2022/08/28 02:20:27;;;;;;;9.80;7.10;;;;;;;18.35;89.79;98011.61;105884;1275;25203;-68
2022/08/28 02:22:56;;;;;;;10.80;7.20;;;;;;;18.34;89.82;98008.74;105931;1277;24276;-68
2022/08/28 02:25:23;;;;;;;;;;;;;;;18.34;89.97;98012.55;105975;1277;25343;-68
2022/08/28 02:27:50;;;;;;;9.00;7.40;;;;;;;18.31;89.96;98011.71;105856;1277;24388;-68
2022/08/28 02:30:17;;;;;;;9.40;7.50;;;;;;;18.31;90.03;98012.11;105882;1277;24557;-68
2022/08/28 02:32:45;;;;;;;9.70;7.00;;;;;;;18.31;90.03;98009.25;105889;1277;24404;-68
2022/08/28 02:35:15;;;;;;;8.60;7.60;;;;;;;18.30;89.93;98013.23;105933;1277;24262;-68
2022/08/28 02:37:43;;;;;;;13.00;7.60;;;;;;;18.29;89.86;98006.15;105846;1277;22993;-68
2022/08/28 02:40:13;;;;;;;11.30;7.70;;;;;;;18.28;89.73;98007.43;105813;1277;22540;-68
2022/08/28 02:42:41;;;;;;;13.10;7.30;;;;;;;18.26;89.46;98003.29;105804;1277;22824;-68
2022/08/28 02:45:10;;;;;;;10.50;7.50;;;;;;;18.25;89.44;98012.46;105777;1277;22554;-68
2022/08/28 02:47:43;;;;;;;9.50;6.90;;;;;;;18.25;89.33;98015.54;105832;1277;22703;-68
2022/08/28 02:50:13;;;;;;;8.40;6.80;;;;;;;18.26;89.45;98016.46;105800;1277;24202;-68
2022/08/28 02:52:42;;;;;;;12.10;8.00;;;;;;;18.27;89.34;98016.60;105842;1277;22541;-69
2022/08/28 02:55:11;;;;;;;9.90;6.50;;;;;;;18.29;89.45;98020.80;105866;1277;26005;-68
2022/08/28 02:57:38;;;;;;;9.60;6.50;;;;;;;18.31;89.56;98017.77;105873;1277;22536;-69
2022/08/28 03:00:12;;;;;;;10.60;5.90;;;;;;;18.34;89.65;98018.66;105827;1276;22538;-68
2022/08/28 03:02:40;;;;;;;6.90;6.20;;;;;;;18.38;89.59;98019.41;105812;1275;22525;-69
2022/08/28 03:05:08;;;;;;;8.70;5.90;;;;;;;18.41;89.48;98019.52;105791;1277;22522;-68
2022/08/28 03:07:35;;;;;;;8.30;6.30;;;;;;;18.44;89.13;98020.84;105799;1277;23013;-69
2022/08/28 03:10:05;;;;;;;8.90;5.60;;;;;;;18.45;89.22;98023.41;105771;1277;22535;-68
2022/08/28 03:12:33;;;;;;;8.90;6.00;;;;;;;18.47;89.29;98025.91;105818;1277;23966;-69
2022/08/28 03:15:00;;;;;;;7.20;5.40;;;;;;;18.51;89.30;98023.02;105826;1277;22547;-69
2022/08/28 03:17:27;;;;;;;8.70;5.60;;;;;;;18.53;89.08;98017.89;105785;1277;25311;-68
2022/08/28 03:19:54;;;;;;;7.60;5.50;;;;;;;18.57;89.23;98011.64;105794;1277;22589;-69
2022/08/28 03:23:24;;;;;;;6.70;5.00;;;;;;;18.60;88.91;98012.45;105794;1277;22576;-69
2022/08/28 03:25:09;;;;;;;8.40;5.60;;;;;;;18.67;88.94;98011.81;105755;1277;22556;-69
2022/08/28 03:27:36;;;;;;;10.50;6.60;;;;;;;18.70;88.52;98012.71;105794;1277;22736;-69
2022/08/28 03:30:06;;;;;;;10.00;6.30;;;;;;;18.69;88.36;98012.48;105776;1277;24027;-69
2022/08/28 03:32:34;;;;;;;6.90;5.70;;;;;;;18.68;88.26;98016.36;105800;1277;24428;-68
2022/08/28 03:35:02;;;;;;;8.50;6.50;;;;;;;18.68;88.21;98017.24;105854;1277;22542;-69
2022/08/28 03:37:30;;;;;;;8.10;5.90;;;;;;;18.69;88.00;98016.95;105852;1277;25200;-68
2022/08/28 03:39:57;;;;;;;11.60;6.00;;;;;;;18.67;87.86;98016.21;105810;1277;22996;-69
2022/08/28 03:42:24;;;;;;;9.80;6.40;;;;;;;18.66;87.98;98013.65;105822;1277;22599;-69
2022/08/28 03:44:50;;;;;;;12.30;6.40;;;;;;;18.63;87.43;98014.66;105738;1277;22491;-69
2022/08/28 03:47:17;;;;;;;6.80;5.80;;;;;;;18.56;87.66;98020.20;105772;1277;22664;-69
2022/08/28 03:49:44;;;;;;;11.80;5.90;;;;;;;18.55;87.76;98028.39;105803;1277;24431;-68
2022/08/28 03:52:11;;;;;;;11.30;5.90;;;;;;;18.55;87.80;98033.34;105791;1277;24400;-68
2022/08/28 03:54:38;;;;;;;7.70;5.50;;;;;;;18.54;87.71;98030.34;105768;1277;24421;-69
2022/08/28 03:57:05;;;;;;;6.30;5.70;;;;;;;18.56;87.70;98032.06;105824;1277;25518;-69
2022/08/28 03:59:32;;;;;;;10.30;5.80;;;;;;;18.57;87.58;98034.74;105803;1277;22682;-68
2022/08/28 04:02:36;;;;;;;7.00;5.20;;;;;;;18.55;87.31;98040.78;105836;1277;22535;-68
2022/08/28 04:05:04;;;;;;;6.90;5.60;;;;;;;18.56;87.69;98051.58;105771;1277;30264;-68
2022/08/28 04:07:31;;;;;;;7.00;6.00;;;;;;;18.58;87.95;98060.31;105783;1277;22485;-68
2022/08/28 04:09:58;;;;;;;9.50;6.70;;;;;;;18.59;88.16;98064.81;105769;1277;22553;-68
2022/08/28 04:12:24;;;;;;;7.60;6.50;;;;;;;18.62;88.32;98068.56;105770;1277;24222;-68
2022/08/28 04:14:51;;;;;;;11.10;6.60;;;;;;;18.62;88.27;98069.88;105795;1275;22531;-68
2022/08/28 04:17:18;;;;;;;12.60;7.20;;;;;;;18.63;88.47;98071.46;105810;1277;24313;-68
2022/08/28 04:19:45;;;;;;;10.80;7.10;;;;;;;18.65;88.51;98076.00;105819;1277;22528;-68
2022/08/28 04:22:12;;;;;;;10.80;7.30;;;;;;;18.65;88.21;98073.96;105828;1277;24371;-68
2022/08/28 04:24:39;;;;;;;10.70;7.50;;;;;;;18.63;88.28;98076.38;105767;1277;25391;-68
2022/08/28 04:27:06;;;;;;;9.70;7.20;;;;;;;18.63;88.39;98076.38;105778;1277;22881;-68
2022/08/28 04:29:33;;;;;;;11.50;7.60;;;;;;;18.63;88.33;98080.06;105756;1277;26640;-68
2022/08/28 04:32:00;;;;;;;12.10;7.90;;;;;;;18.63;88.22;98081.01;105809;1277;22600;-68
2022/08/28 04:34:27;;;;;;;10.40;8.90;;;;;;;18.62;88.08;98074.58;105792;1277;25418;-68
2022/08/28 04:36:54;;;;;;;11.90;8.30;;;;;;;18.60;88.01;98074.95;105850;1277;24482;-70
2022/08/28 04:39:21;;;;;;;9.80;8.10;;;;;;;18.59;88.22;98079.81;105522;1277;22578;-69
2022/08/28 04:41:49;;;;;;;12.70;9.10;;;;;;;18.60;88.22;98075.98;105800;1277;24316;-68
2022/08/28 04:44:16;;;;;;;13.60;8.70;;;;;;;18.59;87.92;98070.94;105770;1277;22672;-69
2022/08/28 04:46:43;;;;;;;10.00;8.60;;;;;;;18.57;87.87;98071.59;105771;1277;22545;-68
2022/08/28 04:49:10;;;;;;;11.80;7.90;;;;;;;18.54;87.99;98072.77;105780;1277;26508;-69
2022/08/28 04:51:38;;;;;;;9.00;7.90;;;;;;;18.51;88.24;98076.39;105748;1277;25452;-68
2022/08/28 04:54:06;;;;;;;11.30;8.10;;;;;;;18.52;88.66;98081.95;105835;1277;25573;-69
2022/08/28 04:56:33;;;;;;;11.30;7.40;;;;;;;18.55;88.88;98079.55;105845;1277;25330;-69
2022/08/28 04:59:01;;;;;;;14.10;8.30;;;;;;;18.59;88.86;98080.48;105823;1277;22543;-68
2022/08/28 05:01:27;;;;;;;10.60;7.20;;;;;;;18.65;89.01;98083.40;105842;1277;25304;-69
2022/08/28 05:03:57;;;;;;;12.90;7.20;;;;;;;18.72;89.11;98083.35;105789;1277;22773;-69
2022/08/28 05:06:27;;;;;;;10.40;7.30;;;;;;;18.79;88.98;98083.42;105583;1277;25536;-69
2022/08/28 05:08:58;;;;;;;11.80;7.10;;;;;;;18.82;88.71;98081.95;105829;1277;25486;-69
2022/08/28 05:11:28;;;;;;;11.20;6.90;;;;;;;18.86;88.63;98082.17;105853;1277;22553;-69
2022/08/28 05:13:55;;;;;;;10.00;6.60;;;;;;;18.90;88.72;98082.68;105793;1277;25318;-69
2022/08/28 05:16:22;;;;;;;12.90;7.60;;;;;;;18.98;89.00;98081.18;105805;1277;26013;-69
2022/08/28 05:18:49;;;;;;;12.30;8.30;;;;;;;19.09;88.87;98079.23;105817;1277;25294;-69
2022/08/28 05:21:22;;;;;;;12.70;7.90;;;;;;;19.17;88.74;98074.25;105797;1277;22583;-69
2022/08/28 05:23:52;;;;;;;10.90;8.20;;;;;;;19.27;88.93;98072.47;105816;1277;22567;-69
2022/08/28 05:26:19;;;;;;;13.60;8.80;;;;;;;19.38;88.84;98073.59;105798;1277;25522;-69
2022/08/28 05:28:47;;;;;;;11.20;7.40;;;;;;;19.50;88.71;98076.84;105781;1277;24299;-69
2022/08/28 05:31:20;;;;;;;11.80;8.40;;;;;;;19.63;88.60;98075.70;105824;1277;25290;-69
2022/08/28 05:33:48;;;;;;;10.80;7.70;;;;;;;19.74;88.37;98077.60;105830;1277;24279;-69
2022/08/28 05:36:16;;;;;;;10.20;8.10;;;;;;;19.83;88.19;98088.02;105798;1277;22713;-69
2022/08/28 05:38:43;;;;;;;12.30;8.90;;;;;;;19.92;87.85;98099.16;105801;1277;22551;-69
2022/08/28 05:41:10;;;;;;;13.00;8.10;;;;;;;19.97;87.56;98098.64;105813;1277;24218;-69
2022/08/28 05:43:37;;;;;;;11.20;7.70;;;;;;;20.05;87.40;98091.64;105810;1276;22557;-69
2022/08/28 05:46:09;;;;;;;9.70;7.30;;;;;;;20.11;87.26;98092.54;105788;1277;22731;-69
2022/08/28 05:48:37;;;;;;;11.30;8.00;;;;;;;20.15;86.87;98091.59;105806;1277;24319;-69
2022/08/28 05:51:04;;;;;;;;;;;;;;;20.18;86.36;98086.38;105789;1277;24286;-69
2022/08/28 05:53:34;;;;;;;13.30;8.30;;;;;;;20.19;86.07;98084.98;105801;1277;25253;-69
2022/08/28 05:56:04;;;;;;;14.90;8.40;;;;;;;20.21;85.75;98084.66;105813;1277;25247;-69
2022/08/28 05:58:33;;;;;;;13.50;8.00;;;;;;;20.22;85.52;98085.84;105784;1277;22740;-69
2022/08/28 06:01:07;;;;;;;;;;;;;;;20.25;85.37;98085.84;105814;1277;25452;-69
2022/08/28 06:03:36;;;;;;;11.10;7.30;;;;;;;20.28;84.98;98080.23;105812;1277;22750;-69
2022/08/28 06:06:04;;;;;;;13.30;7.80;;;;;;;20.28;84.74;98076.27;105822;1277;22689;-69
2022/08/28 06:08:31;;;;;;;11.10;8.00;;;;;;;20.30;85.26;98076.50;105779;1277;24258;-69
2022/08/28 06:10:59;;;;;;;11.20;8.10;;;;;;;20.36;85.45;98076.73;105772;1276;24259;-69
2022/08/28 06:13:28;;;;;;;14.90;9.40;;;;;;;20.41;85.26;98074.08;105858;1277;22534;-69
2022/08/28 06:15:56;;;;;;;12.90;9.10;;;;;;;20.45;84.87;98083.98;105803;1277;25304;-69
2022/08/28 06:18:24;;;;;;;12.20;8.50;;;;;;;20.47;84.70;98086.08;105805;1277;25589;-69
2022/08/28 06:20:52;;;;;;;14.10;8.40;;;;;;;20.47;84.38;98087.73;105846;1277;25290;-69
2022/08/28 06:23:20;;;;;;;10.10;8.30;;;;;;;20.48;84.12;98086.20;105896;1277;24315;-71
2022/08/28 06:25:50;;;;;;;13.60;8.60;;;;;;;20.49;84.16;98084.26;105777;1277;22528;-69
2022/08/28 06:28:24;;;;;;;12.30;8.70;;;;;;;20.54;84.20;98084.58;105797;1277;22616;-69
2022/08/28 06:30:52;;;;;;;14.70;8.80;;;;;;;20.60;84.18;98079.52;105780;1277;22545;-69
2022/08/28 06:33:21;;;;;;;12.90;8.80;;;;;;;20.64;83.37;98074.91;105856;1277;22591;-69
2022/08/28 06:35:49;;;;;;;;;;;;;;;20.67;83.06;98068.17;105853;1277;22550;-69
2022/08/28 06:38:17;;;;;;;9.90;8.60;;;;;;;20.72;83.06;98069.49;105765;1277;30771;-69
2022/08/28 06:40:47;;;;;;;13.00;9.40;;;;;;;20.78;83.08;98070.41;105921;1277;24306;-69
2022/08/28 06:43:15;;;;;;;15.50;9.40;;;;;;;20.80;82.42;98070.29;105897;1277;23003;-69
2022/08/28 06:45:45;;;;;;;14.00;9.60;;;;;;;20.81;81.62;98070.80;105897;1277;22548;-69
2022/08/28 06:48:15;;;;;;;19.00;9.90;;;;;;;20.81;81.56;98069.55;105866;1277;22621;-69
2022/08/28 06:50:44;;;;;;;11.80;8.80;;;;;;;20.85;81.86;98069.65;104718;1277;1645381;-69
2022/08/28 06:53:13;;;;;;;11.10;8.60;;;;;;;20.88;81.90;98074.09;105953;1277;25312;-69
2022/08/28 06:55:41;;;;;;;11.10;8.80;;;;;;;20.93;81.86;98071.14;105937;1277;25366;-69
2022/08/28 06:58:09;;;;;;;16.00;9.50;;;;;;;20.98;81.72;98070.30;105883;1277;25363;-69
2022/08/28 07:00:37;;;;;;;13.70;9.50;;;;;;;21.07;81.30;98068.81;105908;1277;22732;-69
2022/08/28 07:03:04;;;;;;;15.40;9.60;;;;;;;21.09;81.19;98072.98;105906;1277;23160;-69
2022/08/28 07:05:33;;;;;;;15.70;9.80;;;;;;;21.13;81.29;98070.35;105743;1277;22543;-69
2022/08/28 07:08:00;;;;;;;12.80;8.80;;;;;;;21.17;80.80;98069.44;105815;1277;25707;-69
2022/08/28 07:10:28;;;;;;;10.00;8.80;;;;;;;21.24;80.58;98071.30;105718;1277;23068;-70
2022/08/28 07:12:55;;;;;;;10.10;9.00;;;;;;;21.30;80.46;98066.72;105822;1277;22865;-70
2022/08/28 07:15:22;;;;;;;12.10;9.30;;;;;;;21.33;79.87;98059.94;105701;1277;22528;-70
2022/08/28 07:17:49;;;;;;;11.60;8.40;;;;;;;21.37;79.43;98058.20;105781;1277;25287;-70
2022/08/28 07:20:17;;;;;;;13.40;9.00;;;;;;;21.43;79.17;98057.02;105885;1277;24399;-69
2022/08/28 07:22:44;;;;;;;13.90;9.30;;;;;;;21.53;79.05;98055.83;105891;1277;22715;-69
2022/08/28 07:25:10;;;;;;;11.10;8.30;;;;;;;21.59;78.51;98053.70;105907;1277;24223;-69
2022/08/28 07:27:37;;;;;;;12.50;8.70;;;;;;;21.65;78.74;98054.44;105872;1277;25298;-68
2022/08/28 07:30:06;;;;;;;13.90;8.70;;;;;;;21.73;78.36;98055.19;105880;1276;22521;-68
2022/08/28 07:32:32;;;;;;;15.40;8.60;;;;;;;21.80;78.05;98051.77;105884;1277;22641;-69
2022/08/28 07:34:59;;;;;;;14.30;7.50;;;;;;;21.89;77.96;98053.41;105855;1277;24387;-68
2022/08/28 07:37:27;;;;;;;11.70;8.40;;;;;;;21.97;77.35;98050.69;105969;1277;25231;-68
2022/08/28 07:39:54;;;;;;;13.20;8.40;;;;;;;22.02;76.42;98050.00;105863;1277;22562;-68
2022/08/28 07:45:08;;;;;;;11.70;8.40;;;;;;;22.07;76.16;98047.40;105882;1277;22540;-68
2022/08/28 07:47:37;;;;;;;11.10;8.10;;;;;;;22.13;75.78;98050.15;105909;1277;25366;-68
2022/08/28 07:50:04;;;;;;;10.40;7.50;;;;;;;22.18;75.48;98055.94;105890;1277;25295;-68
2022/08/28 07:52:31;;;;;;;11.20;8.20;;;;;;;22.30;75.86;98056.91;105851;1277;22553;-68
2022/08/28 07:54:59;;;;;;;11.10;7.30;;;;;;;22.44;76.13;98057.89;105871;1277;24282;-68
2022/08/28 07:57:26;;;;;;;8.40;6.70;;;;;;;22.54;75.24;98061.67;105855;1277;25248;-69
2022/08/28 07:59:52;;;;;;;10.70;6.40;;;;;;;22.63;74.59;98058.69;105802;1277;30603;-69
2022/08/28 08:02:19;;;;;;;8.60;6.20;;;;;;;22.77;74.22;98059.86;105810;1277;24399;-68
2022/08/28 08:04:46;;;;;;;10.10;7.40;;;;;;;22.89;74.47;98061.05;105810;1277;25317;-68
2022/08/28 08:07:13;;;;;;;13.10;7.80;;;;;;;23.01;74.80;98059.86;105770;1277;22559;-68
2022/08/28 08:09:42;;;;;;;10.20;7.10;;;;;;;23.13;74.60;98057.88;105771;1277;24388;-68
2022/08/28 08:12:11;;;;;;;10.40;7.20;;;;;;;23.24;73.87;98059.77;105832;1277;23964;-67
2022/08/28 08:14:40;;;;;;;9.10;7.10;;;;;;;23.35;73.18;98053.65;105843;1277;22576;-68
2022/08/28 08:17:08;;;;;;;8.80;6.80;;;;;;;23.48;72.92;98051.98;105812;1277;24262;-68
2022/08/28 08:19:35;;;;;;;12.20;7.10;;;;;;;23.57;71.67;98054.60;105783;1277;23089;-68
2022/08/28 08:22:02;;;;;;;10.60;6.80;;;;;;;23.64;71.23;98059.41;105851;1277;25248;-68
2022/08/28 08:24:29;;;;;;;9.30;6.70;;;;;;;23.76;71.45;98058.24;105553;1277;22747;-68
2022/08/28 08:26:59;;;;;;;8.60;6.90;;;;;;;23.89;71.12;98059.55;105822;1277;25316;-68
2022/08/28 08:29:32;;;;;;;10.40;6.50;;;;;;;24.00;70.75;98061.13;105839;1277;24407;-68
2022/08/28 08:32:04;;;;;;;10.40;6.50;;;;;;;24.11;69.86;98062.21;105817;1277;25361;-69
2022/08/28 08:34:32;;;;;;;10.20;7.10;;;;;;;24.23;69.92;98060.08;105811;1277;22621;-69
2022/08/28 08:37:00;;;;;;;;;;;;;;;24.33;69.68;98059.70;105841;1277;24228;-69
2022/08/28 08:39:27;;;;;;;10.00;6.80;;;;;;;24.40;68.98;98063.41;105794;1277;22569;-68
2022/08/28 08:41:57;;;;;;;8.80;6.60;;;;;;;24.49;68.71;98065.77;105798;1277;22759;-69
2022/08/28 08:44:24;;;;;;;10.20;7.10;;;;;;;24.55;67.32;98063.65;105876;1277;24218;-68
2022/08/28 08:47:18;;;;;;;9.50;7.10;;;;;;;24.57;67.16;98066.55;105805;1277;24237;-68
2022/08/28 08:49:56;;;;;;;8.20;7.20;;;;;;;24.60;67.84;98068.16;105774;1277;24463;-68
2022/08/28 08:52:50;;;;;;;10.90;7.30;;;;;;;24.68;68.26;98070.10;105785;1277;24319;-68
2022/08/28 08:55:45;;;;;;;8.80;6.80;;;;;;;24.80;67.95;98073.04;105793;1277;22564;-68
2022/08/28 08:58:33;;;;;;;10.80;6.50;;;;;;;24.84;67.04;98075.30;105767;1277;22554;-69
2022/08/28 09:01:37;;;;;;;9.40;6.90;;;;;;;24.87;67.33;98076.04;105786;1278;31458;-68
2022/08/28 09:04:38;;;;;;;10.50;6.60;;;;;;;24.96;67.61;98084.27;105800;1277;24369;-69
2022/08/28 09:07:24;;;;;;;13.60;7.80;;;;;;;25.04;67.74;98078.71;105829;1277;24364;-68
2022/08/28 09:09:53;;;;;;;11.10;7.10;;;;;;;25.10;67.12;98081.61;105791;1276;22544;-69
2022/08/28 09:12:22;;;;;;;8.20;6.10;;;;;;;25.15;66.86;98084.64;105832;1277;22692;-68
2022/08/28 09:15:08;;;;;;;9.00;6.40;;;;;;;25.21;66.71;98084.10;105784;1278;24253;-68
2022/08/28 09:17:46;;;;;;;8.40;6.60;;;;;;;25.32;66.40;98080.81;105778;1277;25316;-68
2022/08/28 09:20:20;;;;;;;9.60;6.40;;;;;;;25.36;65.68;98084.17;105847;1277;22550;-67
2022/08/28 09:22:48;;;;;;;7.10;6.00;;;;;;;25.43;65.49;98092.05;105851;1277;25299;-68
2022/08/28 09:25:49;;;;;;;10.60;6.10;;;;;;;25.46;63.96;98094.69;105790;1277;22551;-67
2022/08/28 09:28:35;;;;;;;11.10;6.20;;;;;;;25.50;63.93;98095.02;105802;1277;25286;-68
2022/08/28 09:31:27;;;;;;;7.60;5.90;;;;;;;25.61;63.15;98092.39;105784;1278;22714;-68
2022/08/28 09:33:54;;;;;;;9.30;6.10;;;;;;;25.67;63.03;98096.25;105793;1277;22561;-68
2022/08/28 09:36:33;;;;;;;10.30;6.20;;;;;;;25.74;62.75;98095.24;105783;1278;24374;-68
2022/08/28 09:39:18;;;;;;;10.80;6.40;;;;;;;25.79;62.72;98100.49;105763;1277;22700;-68
2022/08/28 09:44:56;;;;;;;9.20;6.40;;;;;;;25.87;62.23;98101.60;105808;1277;22545;-68
2022/08/28 09:47:39;;;;;;;11.10;6.10;;;;;;;25.96;62.57;98101.64;105824;1277;25377;-68
2022/08/28 09:50:15;;;;;;;7.50;5.80;;;;;;;26.04;61.55;98101.36;105780;1277;24285;-68
2022/08/28 09:52:42;;;;;;;8.30;5.50;;;;;;;26.18;61.69;98104.54;105804;1277;25238;-68
2022/08/28 09:55:16;;;;;;;9.30;5.60;;;;;;;26.42;60.98;98098.95;105777;1277;22537;-68
2022/08/28 09:57:45;;;;;;;6.00;5.20;;;;;;;26.59;60.79;98098.69;105739;1278;24225;-68
2022/08/28 10:00:13;;;;;;;9.20;6.00;;;;;;;26.64;59.73;98097.79;105854;1277;24228;-68
2022/08/28 10:02:52;;;;;;;8.80;5.70;;;;;;;26.65;59.15;98098.04;105835;1277;25241;-68
2022/08/28 10:05:44;;;;;;;7.80;6.00;;;;;;;26.65;59.19;98093.90;105822;1278;22550;-67
2022/08/28 10:08:34;;;;;;;10.10;5.80;;;;;;;26.67;58.56;98094.11;105074;1283;22548;-68
2022/08/28 10:11:22;;;;;;;9.30;5.90;;;;;;;26.62;58.82;98093.59;104988;1284;23950;-68
2022/08/28 10:14:05;;;;;;;8.10;5.60;;;;;;;26.64;58.87;98091.23;105182;1284;25300;-68
2022/08/28 10:16:58;;;;;;;10.60;5.70;;;;;;;26.70;59.39;98094.11;105156;1283;24122;-68
2022/08/28 10:19:32;;;;;;;8.80;5.60;;;;;;;26.82;58.80;98093.34;105210;1284;22688;-68
2022/08/28 10:22:23;;;;;;;8.70;6.00;;;;;;;26.82;58.01;98094.15;105146;1283;24271;-68
2022/08/28 10:25:26;;;;;;;11.00;6.30;;;;;;;26.80;58.14;98096.59;105178;1284;25529;-68
2022/08/28 10:28:15;;;;;;;8.70;5.90;;;;;;;26.80;58.72;98093.79;104432;1289;24395;-68
2022/08/28 10:31:30;;;;;;;11.30;5.40;;;;;;;26.79;57.79;98093.35;104578;1287;24323;-68
2022/08/28 10:34:11;;;;;;;9.90;5.60;;;;;;;26.72;57.15;98098.86;103755;1294;24167;-68
2022/08/28 10:36:38;;;;;;;9.40;5.50;;;;;;;26.68;57.70;98102.92;103753;1295;26497;-68
2022/08/28 10:39:11;;;;;;;11.70;5.90;;;;;;;26.62;57.59;98098.55;103763;1295;24325;-68
2022/08/28 10:41:47;;;;;;;6.70;5.40;;;;;;;26.60;57.81;98100.68;103789;1295;22584;-68
2022/08/28 10:44:24;;;;;;;8.00;5.60;;;;;;;26.55;57.56;98097.13;103717;1294;22574;-68
2022/08/28 10:46:56;;;;;;;10.00;6.60;;;;;;;26.54;58.25;98097.17;104194;1290;25345;-68
2022/08/28 10:49:33;;;;;;;9.70;6.00;;;;;;;26.53;58.09;98094.29;104425;1290;22740;-68
2022/08/28 10:52:32;;;;;;;11.80;5.40;;;;;;;26.52;58.06;98094.59;104396;1290;24258;-68
2022/08/28 10:55:20;;;;;;;9.80;5.90;;;;;;;26.46;57.76;98098.33;104462;1289;22760;-68
2022/08/28 10:57:56;;;;;;;;;;;;;;;26.39;58.61;98094.09;104424;1290;22592;-68
2022/08/28 11:00:26;;;;;;;8.20;6.00;;;;;;;26.34;58.85;98095.23;104417;1289;22563;-68
2022/08/28 11:02:56;;;;;;;10.00;5.80;;;;;;;26.33;59.10;98100.23;104405;1291;25301;-68
2022/08/28 11:05:28;;;;;;;9.60;5.80;;;;;;;26.30;59.28;98098.16;105377;1278;22571;-68
2022/08/28 11:08:00;;;;;;;6.90;6.00;;;;;;;26.29;59.17;98098.21;105705;1277;25481;-68
2022/08/28 11:10:31;;;;;;;9.10;6.00;;;;;;;26.24;58.91;98097.90;105770;1277;22634;-68
2022/08/28 11:12:58;;;;;;;7.90;5.30;;;;;;;26.21;58.81;98095.83;105776;1277;22541;-68
2022/08/28 11:15:30;;;;;;;7.50;5.20;;;;;;;26.18;59.12;98099.36;105850;1277;24312;-68
2022/08/28 11:18:12;;;;;;;7.40;5.70;;;;;;;26.18;59.23;98093.23;105882;1278;22585;-68
2022/08/28 11:20:44;;;;;;;7.70;5.50;;;;;;;26.19;59.01;98089.89;105892;1278;24411;-68
2022/08/28 11:23:19;;;;;;;8.70;5.30;;;;;;;26.21;59.27;98089.70;105850;1277;25267;-68
2022/08/28 11:25:53;;;;;;;9.10;5.60;;;;;;;26.24;59.55;98087.08;105910;1276;23929;-68
2022/08/28 11:28:23;;;;;;;9.20;5.60;;;;;;;26.27;59.74;98086.28;105900;1277;25808;-68
2022/08/28 11:30:59;;;;;;;8.40;5.90;;;;;;;26.27;59.66;98082.30;105889;1276;25435;-68
2022/08/28 11:33:40;;;;;;;11.90;6.20;;;;;;;26.27;59.76;98082.30;105643;1277;22560;-66
2022/08/28 11:36:20;;;;;;;8.50;5.60;;;;;;;26.25;59.51;98083.83;105863;1277;22547;-68
2022/08/28 11:38:52;;;;;;;8.50;6.40;;;;;;;26.23;59.64;98083.63;106812;1274;22661;-69
2022/08/28 11:41:35;;;;;;;11.70;5.80;;;;;;;26.24;59.53;98081.90;106248;1274;22723;-69
2022/08/28 11:44:08;;;;;;;7.50;5.70;;;;;;;26.28;59.33;98079.60;106967;1274;26663;-68
2022/08/28 11:46:44;;;;;;;6.70;5.50;;;;;;;26.33;59.41;98076.38;106050;1277;25251;-68